createdAt,value
2023-01-03T00:00:12.708Z,93.08
2023-01-03T00:01:12.671Z,93.39
2023-01-03T00:02:12.732Z,93.29
2023-01-03T00:03:12.621Z,93.08
2023-01-03T00:04:12.821Z,93.18
2023-01-03T00:05:12.618Z,93.08
2023-01-03T00:06:12.598Z,93.08
2023-01-03T00:07:12.603Z,93.59
2023-01-03T00:08:12.570Z,93.29
2023-01-03T00:09:12.566Z,92.97
2023-01-03T00:10:12.562Z,93.18
2023-01-03T00:11:12.550Z,93.18
2023-01-03T00:12:12.605Z,93.29
2023-01-03T00:13:12.518Z,92.77
2023-01-03T00:14:12.505Z,92.73
2023-01-03T00:15:12.496Z,92.87
2023-01-03T00:16:12.481Z,92.77
2023-01-03T00:17:12.688Z,92.87
2023-01-03T00:18:12.458Z,93.08
2023-01-03T00:19:12.444Z,92.57
2023-01-03T00:20:12.461Z,92.57
2023-01-03T00:21:12.429Z,92.46
2023-01-03T00:22:12.430Z,92.92
2023-01-03T00:23:12.396Z,92.82
2023-01-03T00:24:12.395Z,92.82
2023-01-03T00:25:13.143Z,93.02
2023-01-03T00:26:12.368Z,93.02
2023-01-03T00:27:12.379Z,93.23
2023-01-03T00:28:12.372Z,92.50
2023-01-03T00:29:12.344Z,92.40
2023-01-03T00:30:12.322Z,93.23
2023-01-03T00:31:12.407Z,93.33
2023-01-03T00:32:12.307Z,93.49
2023-01-03T00:33:12.305Z,93.64
2023-01-03T00:34:12.300Z,93.33
2023-01-03T00:35:12.299Z,93.23
2023-01-03T00:36:12.251Z,93.33
2023-01-03T00:37:12.235Z,93.43
2023-01-03T00:38:12.229Z,93.64
2023-01-03T00:39:12.301Z,93.43
2023-01-03T00:40:12.203Z,93.64
2023-01-03T00:41:12.194Z,93.33
2023-01-03T00:42:12.184Z,93.02
2023-01-03T00:43:12.866Z,93.02
2023-01-03T00:44:12.220Z,93.33
2023-01-03T00:45:16.190Z,93.74
2023-01-03T00:46:13.161Z,93.12
2023-01-03T00:47:12.128Z,93.02
2023-01-03T00:48:12.165Z,93.18
2023-01-03T00:49:12.114Z,92.82
2023-01-03T00:50:12.095Z,92.77
2023-01-03T00:51:12.103Z,92.82
2023-01-03T00:52:12.074Z,92.71
2023-01-03T00:53:12.063Z,93.12
2023-01-03T00:54:12.069Z,93.02
2023-01-03T00:55:12.080Z,92.82
2023-01-03T00:56:12.059Z,92.92
2023-01-03T00:57:12.013Z,92.92
2023-01-03T00:58:12.000Z,92.71
2023-01-03T01:00:22.277Z,92.61
2023-01-03T01:01:22.373Z,92.50
2023-01-03T01:02:22.482Z,92.71
2023-01-03T01:03:22.549Z,92.61
2023-01-03T01:04:22.197Z,92.92
2023-01-03T01:05:23.206Z,92.71
2023-01-03T01:06:22.169Z,92.82
2023-01-03T01:07:22.154Z,93.02
2023-01-03T01:09:33.362Z,93.12
2023-01-03T01:10:33.382Z,92.71
2023-01-03T01:11:33.336Z,92.40
2023-01-03T01:12:33.627Z,92.61
2023-01-03T01:15:55.900Z,92.40
2023-01-03T01:16:55.743Z,92.50
2023-01-03T01:17:55.881Z,92.30
2023-01-03T01:18:55.876Z,92.50
2023-01-03T01:19:55.805Z,92.82
2023-01-03T01:20:55.843Z,92.40
2023-01-03T01:21:55.934Z,92.50
2023-01-03T01:22:55.829Z,91.99
2023-01-03T01:23:55.822Z,92.40
2023-01-03T01:24:55.807Z,92.61
2023-01-03T01:25:55.751Z,92.40
2023-01-03T01:26:55.661Z,92.10
2023-01-03T01:28:06.195Z,92.20
2023-01-03T01:30:07.879Z,92.40
2023-01-03T01:32:19.672Z,92.50
2023-01-03T01:33:19.820Z,92.61
2023-01-03T01:35:32.070Z,92.40
2023-01-03T01:36:32.105Z,92.65
2023-01-03T01:37:31.916Z,92.71
2023-01-03T01:38:32.230Z,92.65
2023-01-03T01:40:04.244Z,92.30
2023-01-03T01:40:31.696Z,91.89
2023-01-03T01:42:44.147Z,92.76
2023-01-03T01:43:44.913Z,92.76
2023-01-03T01:44:43.899Z,92.55
2023-01-03T01:45:43.900Z,92.55
2023-01-03T01:46:44.234Z,92.55
2023-01-03T01:47:44.172Z,92.65
2023-01-03T01:49:00.176Z,92.55
2023-01-03T01:50:55.089Z,92.55
2023-01-03T01:53:03.779Z,92.65
2023-01-03T01:54:03.764Z,92.65
2023-01-03T01:55:03.752Z,93.16
2023-01-03T01:56:03.749Z,92.86
2023-01-03T01:57:03.736Z,93.06
2023-01-03T01:58:03.758Z,93.16
2023-01-03T01:59:03.712Z,93.31
2023-01-03T02:00:03.761Z,92.18
2023-01-03T02:01:03.693Z,92.69
2023-01-03T02:02:03.845Z,92.49
2023-01-03T02:03:03.924Z,93.21
2023-01-03T02:04:03.693Z,93.11
2023-01-03T02:05:03.667Z,93.11
2023-01-03T02:06:03.665Z,93.52
2023-01-03T02:07:03.637Z,93.11
2023-01-03T02:08:03.620Z,93.73
2023-01-03T02:09:03.625Z,93.73
2023-01-03T02:10:03.620Z,93.73
2023-01-03T02:11:03.610Z,92.90
2023-01-03T02:12:03.584Z,93.52
2023-01-03T02:13:03.594Z,93.31
2023-01-03T02:14:03.548Z,93.83
2023-01-03T02:15:03.575Z,93.41
2023-01-03T02:16:03.659Z,92.80
2023-01-03T02:17:03.572Z,93.41
2023-01-03T02:18:03.535Z,93.21
2023-01-03T02:19:03.560Z,93.83
2023-01-03T02:20:03.489Z,93.41
2023-01-03T02:21:03.494Z,93.01
2023-01-03T02:22:03.473Z,92.69
2023-01-03T02:23:03.457Z,93.25
2023-01-03T02:24:03.456Z,93.21
2023-01-03T02:25:03.491Z,93.25
2023-01-03T02:26:03.438Z,93.15
2023-01-03T02:27:03.439Z,93.35
2023-01-03T02:28:03.489Z,93.35
2023-01-03T02:29:03.385Z,93.87
2023-01-03T02:30:03.399Z,93.77
2023-01-03T02:31:03.442Z,93.77
2023-01-03T02:32:03.353Z,93.46
2023-01-03T02:33:03.344Z,93.50
2023-01-03T02:34:03.327Z,93.50
2023-01-03T02:35:03.334Z,94.23
2023-01-03T02:36:03.354Z,94.53
2023-01-03T02:37:03.315Z,94.28
2023-01-03T02:38:03.346Z,94.18
2023-01-03T02:39:03.269Z,94.18
2023-01-03T02:40:03.405Z,94.18
2023-01-03T02:41:03.251Z,94.18
2023-01-03T02:42:03.252Z,94.59
2023-01-03T02:43:03.226Z,94.18
2023-01-03T02:44:03.237Z,94.18
2023-01-03T02:45:03.269Z,94.18
2023-01-03T02:46:03.300Z,94.28
2023-01-03T02:47:03.335Z,94.08
2023-01-03T02:48:03.172Z,94.18
2023-01-03T02:49:03.166Z,94.59
2023-01-03T02:50:03.143Z,94.49
2023-01-03T02:51:03.196Z,94.38
2023-01-03T02:52:03.132Z,94.13
2023-01-03T02:53:03.194Z,93.62
2023-01-03T02:54:03.122Z,93.56
2023-01-03T02:55:03.101Z,93.41
2023-01-03T02:56:03.118Z,93.73
2023-01-03T02:57:03.093Z,93.62
2023-01-03T02:58:03.085Z,93.41
2023-01-03T02:59:03.099Z,93.52
2023-01-03T03:00:03.053Z,92.90
2023-01-03T03:01:03.122Z,93.52
2023-01-03T03:02:03.230Z,93.05
2023-01-03T03:03:03.114Z,93.21
2023-01-03T03:04:03.050Z,92.53
2023-01-03T03:05:02.993Z,92.90
2023-01-03T03:06:02.979Z,92.94
2023-01-03T03:07:03.002Z,92.74
2023-01-03T03:08:02.946Z,92.74
2023-01-03T03:09:03.000Z,92.94
2023-01-03T03:10:03.005Z,92.94
2023-01-03T03:11:02.943Z,92.53
2023-01-03T03:12:02.923Z,92.94
2023-01-03T03:13:02.900Z,92.74
2023-01-03T03:14:02.882Z,93.05
2023-01-03T03:15:02.891Z,92.63
2023-01-03T03:16:02.941Z,93.46
2023-01-03T03:17:02.921Z,93.35
2023-01-03T03:18:02.843Z,92.22
2023-01-03T03:19:02.994Z,92.38
2023-01-03T03:20:06.537Z,92.84
2023-01-03T03:21:02.831Z,92.33
2023-01-03T03:22:02.911Z,92.53
2023-01-03T03:23:02.815Z,92.43
2023-01-03T03:24:02.768Z,92.53
2023-01-03T03:25:02.865Z,92.53
2023-01-03T03:26:02.774Z,92.63
2023-01-03T03:27:02.742Z,92.63
2023-01-03T03:28:02.732Z,92.53
2023-01-03T03:29:02.728Z,92.94
2023-01-03T03:30:02.701Z,92.63
2023-01-03T03:31:02.763Z,92.63
2023-01-03T03:32:02.728Z,92.57
2023-01-03T03:33:02.687Z,92.53
2023-01-03T03:34:02.689Z,92.53
2023-01-03T03:35:02.691Z,92.74
2023-01-03T03:36:02.643Z,92.74
2023-01-03T03:37:02.625Z,92.68
2023-01-03T03:38:02.626Z,92.53
2023-01-03T03:39:02.652Z,92.02
2023-01-03T03:40:02.608Z,92.02
2023-01-03T03:41:02.587Z,93.05
2023-01-03T03:42:02.599Z,93.25
2023-01-03T03:43:02.590Z,93.05
2023-01-03T03:44:02.554Z,92.84
2023-01-03T03:45:02.923Z,92.84
2023-01-03T03:46:02.536Z,92.94
2023-01-03T03:47:05.175Z,92.94
2023-01-03T03:48:02.517Z,93.15
2023-01-03T03:49:02.524Z,92.94
2023-01-03T03:50:02.535Z,93.25
2023-01-03T03:51:02.470Z,93.25
2023-01-03T03:52:02.472Z,92.53
2023-01-03T03:53:02.491Z,93.25
2023-01-03T03:54:02.484Z,93.25
2023-01-03T03:55:02.520Z,93.46
2023-01-03T03:56:02.447Z,93.77
2023-01-03T03:57:02.444Z,93.35
2023-01-03T03:58:02.408Z,93.35
2023-01-03T03:59:02.377Z,93.05
2023-01-03T04:00:02.390Z,93.46
2023-01-03T04:01:02.387Z,93.35
2023-01-03T04:02:02.534Z,93.35
2023-01-03T04:03:02.670Z,93.46
2023-01-03T04:04:02.395Z,93.15
2023-01-03T04:05:02.413Z,93.56
2023-01-03T04:06:02.398Z,93.46
2023-01-03T04:07:02.432Z,93.46
2023-01-03T04:08:02.323Z,93.66
2023-01-03T04:09:02.283Z,93.71
2023-01-03T04:10:02.318Z,92.88
2023-01-03T04:11:02.363Z,92.88
2023-01-03T04:12:02.270Z,93.03
2023-01-03T04:13:02.245Z,93.54
2023-01-03T04:14:02.232Z,93.44
2023-01-03T04:15:02.212Z,93.13
2023-01-03T04:16:02.308Z,93.34
2023-01-03T04:17:02.186Z,93.34
2023-01-03T04:18:02.169Z,93.44
2023-01-03T04:19:02.186Z,93.85
2023-01-03T04:20:02.151Z,93.90
2023-01-03T04:21:02.171Z,93.49
2023-01-03T04:22:02.130Z,93.38
2023-01-03T04:23:02.119Z,94.21
2023-01-03T04:24:02.136Z,94.21
2023-01-03T04:25:02.108Z,94.31
2023-01-03T04:26:02.084Z,94.72
2023-01-03T04:27:02.089Z,94.67
2023-01-03T04:28:02.060Z,94.77
2023-01-03T04:29:02.054Z,94.25
2023-01-03T04:30:02.086Z,94.40
2023-01-03T04:31:02.039Z,94.09
2023-01-03T04:32:02.097Z,94.04
2023-01-03T04:33:02.066Z,94.50
2023-01-03T04:34:02.005Z,95.28
2023-01-03T04:35:02.028Z,95.28
2023-01-03T04:36:01.962Z,95.22
2023-01-03T04:37:01.981Z,95.12
2023-01-03T04:38:01.957Z,95.02
2023-01-03T04:39:01.953Z,95.12
2023-01-03T04:40:01.938Z,94.97
2023-01-03T04:41:01.931Z,94.77
2023-01-03T04:42:01.926Z,94.81
2023-01-03T04:43:01.928Z,94.92
2023-01-03T04:44:02.074Z,95.22
2023-01-03T04:45:01.865Z,95.22
2023-01-03T04:46:01.897Z,94.92
2023-01-03T04:47:01.880Z,94.35
2023-01-03T04:48:01.889Z,94.60
2023-01-03T04:49:01.837Z,94.71
2023-01-03T04:50:01.869Z,94.19
2023-01-03T04:51:01.830Z,94.29
2023-01-03T04:52:01.786Z,94.60
2023-01-03T04:53:01.782Z,94.60
2023-01-03T04:54:01.803Z,94.40
2023-01-03T04:55:01.827Z,94.40
2023-01-03T04:56:01.828Z,94.40
2023-01-03T04:57:01.769Z,94.44
2023-01-03T04:58:01.749Z,94.44
2023-01-03T04:59:01.739Z,94.34
2023-01-03T05:00:01.801Z,94.38
2023-01-03T05:01:01.883Z,94.79
2023-01-03T05:02:01.887Z,94.48
2023-01-03T05:03:01.674Z,94.59
2023-01-03T05:04:01.801Z,95.21
2023-01-03T05:05:01.656Z,94.59
2023-01-03T05:06:01.668Z,94.48
2023-01-03T05:07:01.627Z,94.59
2023-01-03T05:08:01.609Z,94.53
2023-01-03T05:09:01.620Z,94.73
2023-01-03T05:10:01.605Z,94.53
2023-01-03T05:11:01.593Z,95.25
2023-01-03T05:12:01.585Z,95.25
2023-01-03T05:13:01.603Z,95.15
2023-01-03T05:14:01.568Z,95.09
2023-01-03T05:15:01.556Z,95.25
2023-01-03T05:16:01.598Z,95.46
2023-01-03T05:17:01.620Z,95.67
2023-01-03T05:18:01.523Z,95.56
2023-01-03T05:19:01.493Z,95.67
2023-01-03T05:20:01.480Z,95.36
2023-01-03T05:21:01.532Z,95.36
2023-01-03T05:22:01.459Z,95.15
2023-01-03T05:23:01.455Z,95.56
2023-01-03T05:24:01.470Z,95.67
2023-01-03T05:25:01.424Z,95.46
2023-01-03T05:26:01.414Z,95.67
2023-01-03T05:27:01.417Z,95.67
2023-01-03T05:28:01.395Z,95.56
2023-01-03T05:29:01.405Z,95.67
2023-01-03T05:30:01.367Z,96.19
2023-01-03T05:31:01.380Z,96.39
2023-01-03T05:32:01.415Z,95.73
2023-01-03T05:33:01.343Z,95.73
2023-01-03T05:34:01.347Z,95.42
2023-01-03T05:35:01.317Z,95.67
2023-01-03T05:36:01.299Z,95.67
2023-01-03T05:37:01.295Z,95.77
2023-01-03T05:38:01.282Z,95.21
2023-01-03T05:39:01.267Z,95.10
2023-01-03T05:40:01.270Z,95.25
2023-01-03T05:41:01.243Z,95.73
2023-01-03T05:42:01.230Z,95.62
2023-01-03T05:43:01.222Z,95.42
2023-01-03T05:44:01.210Z,95.83
2023-01-03T05:45:01.228Z,95.42
2023-01-03T05:46:01.224Z,95.73
2023-01-03T05:47:01.204Z,95.52
2023-01-03T05:48:01.206Z,95.52
2023-01-03T05:49:01.158Z,95.21
2023-01-03T05:50:01.190Z,95.10
2023-01-03T05:51:01.138Z,95.37
2023-01-03T05:52:01.129Z,95.42
2023-01-03T05:53:01.136Z,95.17
2023-01-03T05:54:01.115Z,95.52
2023-01-03T05:55:01.099Z,95.00
2023-01-03T05:56:01.076Z,95.21
2023-01-03T05:57:01.196Z,95.31
2023-01-03T05:58:01.071Z,95.00
2023-01-03T05:59:01.049Z,95.00
2023-01-03T06:00:01.058Z,95.21
2023-01-03T06:01:01.025Z,94.90
2023-01-03T06:02:01.151Z,94.90
2023-01-03T06:03:01.142Z,95.21
2023-01-03T06:04:01.127Z,95.31
2023-01-03T06:05:00.985Z,94.79
2023-01-03T06:06:00.968Z,95.21
2023-01-03T06:07:00.975Z,95.21
2023-01-03T06:08:00.962Z,94.48
2023-01-03T06:09:00.964Z,94.48
2023-01-03T06:10:00.956Z,94.48
2023-01-03T06:11:00.918Z,94.69
2023-01-03T06:12:00.903Z,94.18
2023-01-03T06:13:00.910Z,94.38
2023-01-03T06:14:00.877Z,94.38
2023-01-03T06:15:00.887Z,94.38
2023-01-03T06:16:00.855Z,93.66
2023-01-03T06:17:00.952Z,93.24
2023-01-03T06:18:00.861Z,93.55
2023-01-03T06:19:00.848Z,93.35
2023-01-03T06:20:00.821Z,92.17
2023-01-03T06:21:00.811Z,91.07
2023-01-03T06:22:03.275Z,90.83
2023-01-03T06:23:01.796Z,90.20
2023-01-03T06:24:00.775Z,90.00
2023-01-03T06:25:00.758Z,89.32
2023-01-03T06:26:00.743Z,89.73
2023-01-03T06:27:00.776Z,89.42
2023-01-03T06:28:00.725Z,89.59
2023-01-03T06:29:00.735Z,89.52
2023-01-03T06:30:00.724Z,89.32
2023-01-03T06:31:00.751Z,89.62
2023-01-03T06:32:06.851Z,89.38
2023-01-03T06:33:01.666Z,89.32
2023-01-03T06:34:00.660Z,88.80
2023-01-03T06:35:00.665Z,88.96
2023-01-03T06:36:00.655Z,88.49
2023-01-03T06:37:00.627Z,88.59
2023-01-03T06:38:00.649Z,88.39
2023-01-03T06:39:00.612Z,88.18
2023-01-03T06:40:00.599Z,88.39
2023-01-03T06:41:00.577Z,88.49
2023-01-03T06:42:00.615Z,88.28
2023-01-03T06:43:00.559Z,88.59
2023-01-03T06:44:00.550Z,88.80
2023-01-03T06:45:00.532Z,89.25
2023-01-03T06:46:00.559Z,89.36
2023-01-03T06:47:00.514Z,89.25
2023-01-03T06:48:00.544Z,89.36
2023-01-03T06:49:00.498Z,89.19
2023-01-03T06:50:00.497Z,88.84
2023-01-03T06:51:00.491Z,89.40
2023-01-03T06:52:00.491Z,89.50
2023-01-03T06:53:00.450Z,90.12
2023-01-03T06:54:00.437Z,90.74
2023-01-03T06:55:00.426Z,90.64
2023-01-03T06:56:00.426Z,90.44
2023-01-03T06:57:00.406Z,90.68
2023-01-03T06:58:00.421Z,90.26
2023-01-03T06:59:00.383Z,90.99
2023-01-03T07:00:09.433Z,91.09
2023-01-03T07:01:00.435Z,90.68
2023-01-03T07:02:00.534Z,91.20
2023-01-03T07:03:04.260Z,90.89
2023-01-03T07:04:01.438Z,90.99
2023-01-03T07:05:00.371Z,91.09
2023-01-03T07:06:00.340Z,90.99
2023-01-03T07:07:00.664Z,91.41
2023-01-03T07:08:00.285Z,91.09
2023-01-03T07:09:00.314Z,91.09
2023-01-03T07:10:00.272Z,91.09
2023-01-03T07:11:00.252Z,91.14
2023-01-03T07:12:00.289Z,91.35
2023-01-03T07:13:00.266Z,91.35
2023-01-03T07:14:00.248Z,91.14
2023-01-03T07:15:00.244Z,91.35
2023-01-03T07:16:00.307Z,91.14
2023-01-03T07:17:00.240Z,91.97
2023-01-03T07:18:00.196Z,91.09
2023-01-03T07:19:00.194Z,92.03
2023-01-03T07:20:00.175Z,91.93
2023-01-03T07:21:00.183Z,91.20
2023-01-03T07:22:00.175Z,91.09
2023-01-03T07:23:00.144Z,91.09
2023-01-03T07:24:00.129Z,91.45
2023-01-03T07:25:00.119Z,90.89
2023-01-03T07:26:00.111Z,91.14
2023-01-03T07:27:00.096Z,91.14
2023-01-03T07:28:05.839Z,91.03
2023-01-03T07:29:01.052Z,91.14
2023-01-03T07:30:00.152Z,91.76
2023-01-03T07:31:00.090Z,91.35
2023-01-03T07:32:00.039Z,92.13
2023-01-03T07:33:00.098Z,91.86
2023-01-03T07:34:00.087Z,91.76
2023-01-03T07:35:00.004Z,91.86
2023-01-03T07:36:02.459Z,91.66
2023-01-03T07:37:00.217Z,92.07
2023-01-03T07:37:59.954Z,91.76
2023-01-03T07:38:59.958Z,92.07
2023-01-03T07:39:59.970Z,91.66
2023-01-03T07:40:59.946Z,91.97
2023-01-03T07:41:59.937Z,91.86
2023-01-03T07:42:59.903Z,92.18
2023-01-03T07:43:59.907Z,91.76
2023-01-03T07:44:59.884Z,92.18
2023-01-03T07:45:59.927Z,92.07
2023-01-03T07:46:59.864Z,92.28
2023-01-03T07:47:59.857Z,92.18
2023-01-03T07:48:59.850Z,92.28
2023-01-03T07:49:59.827Z,92.18
2023-01-03T07:50:59.824Z,91.76
2023-01-03T07:51:59.805Z,92.07
2023-01-03T07:52:59.807Z,92.28
2023-01-03T07:53:59.774Z,92.07
2023-01-03T07:54:59.773Z,92.22
2023-01-03T07:55:59.839Z,92.11
2023-01-03T07:56:59.767Z,92.22
2023-01-03T07:57:59.737Z,92.43
2023-01-03T07:58:59.715Z,92.63
2023-01-03T07:59:59.727Z,92.43
2023-01-03T08:00:59.693Z,92.53
2023-01-03T08:01:59.787Z,93.19
2023-01-03T08:02:59.763Z,93.50
2023-01-03T08:03:59.671Z,93.46
2023-01-03T08:04:59.770Z,92.94
2023-01-03T08:05:59.646Z,92.98
2023-01-03T08:06:59.698Z,92.98
2023-01-03T08:07:59.617Z,93.29
2023-01-03T08:09:05.755Z,93.29
2023-01-03T08:09:59.724Z,93.50
2023-01-03T08:10:59.593Z,93.29
2023-01-03T08:11:59.618Z,93.23
2023-01-03T08:12:59.587Z,93.33
2023-01-03T08:13:59.558Z,93.23
2023-01-03T08:14:59.547Z,93.54
2023-01-03T08:15:59.567Z,93.75
2023-01-03T08:16:59.551Z,93.85
2023-01-03T08:17:59.674Z,93.85
2023-01-03T08:18:59.501Z,94.27
2023-01-03T08:19:59.612Z,94.06
2023-01-03T08:20:59.544Z,93.96
2023-01-03T08:21:59.515Z,93.85
2023-01-03T08:22:59.535Z,94.27
2023-01-03T08:23:59.435Z,94.06
2023-01-03T08:24:59.525Z,94.17
2023-01-03T08:25:59.444Z,94.27
2023-01-03T08:26:59.538Z,94.37
2023-01-03T08:27:59.442Z,94.84
2023-01-03T08:28:59.395Z,94.68
2023-01-03T08:29:59.386Z,94.79
2023-01-03T08:30:59.399Z,95.51
2023-01-03T08:31:59.474Z,95.72
2023-01-03T08:32:59.334Z,95.31
2023-01-03T08:33:59.334Z,95.00
2023-01-03T08:34:59.386Z,95.20
2023-01-03T08:35:59.440Z,95.57
2023-01-03T08:36:59.305Z,95.57
2023-01-03T08:37:59.327Z,95.26
2023-01-03T08:38:59.288Z,95.57
2023-01-03T08:39:59.270Z,95.47
2023-01-03T08:40:59.272Z,95.68
2023-01-03T08:41:59.275Z,95.16
2023-01-03T08:42:59.258Z,94.95
2023-01-03T08:43:59.240Z,94.85
2023-01-03T08:44:59.202Z,95.22
2023-01-03T08:45:59.256Z,94.91
2023-01-03T08:46:59.283Z,94.81
2023-01-03T08:47:59.316Z,95.12
2023-01-03T08:48:59.211Z,94.81
2023-01-03T08:49:59.166Z,94.45
2023-01-03T08:50:59.172Z,94.76
2023-01-03T08:51:59.154Z,94.76
2023-01-03T08:52:59.117Z,94.45
2023-01-03T08:53:59.198Z,94.87
2023-01-03T08:54:59.117Z,94.56
2023-01-03T08:55:59.111Z,94.62
2023-01-03T08:56:59.132Z,93.62
2023-01-03T08:57:59.152Z,93.83
2023-01-03T08:58:59.104Z,93.68
2023-01-03T08:59:59.064Z,94.10
2023-01-03T09:00:59.040Z,93.93
2023-01-03T09:01:59.303Z,93.83
2023-01-03T09:02:59.235Z,93.79
2023-01-03T09:03:59.092Z,94.10
2023-01-03T09:04:58.981Z,93.79
2023-01-03T09:05:58.983Z,93.68
2023-01-03T09:06:59.003Z,93.58
2023-01-03T09:07:59.001Z,93.37
2023-01-03T09:08:58.956Z,93.54
2023-01-03T09:09:58.929Z,93.64
2023-01-03T09:10:58.913Z,93.74
2023-01-03T09:11:58.953Z,93.54
2023-01-03T09:12:58.913Z,93.64
2023-01-03T09:13:58.910Z,93.12
2023-01-03T09:14:58.922Z,93.70
2023-01-03T09:15:58.961Z,93.80
2023-01-03T09:16:59.146Z,93.60
2023-01-03T09:17:58.874Z,93.45
2023-01-03T09:18:59.002Z,93.66
2023-01-03T09:19:58.831Z,93.66
2023-01-03T09:20:58.819Z,93.55
2023-01-03T09:21:58.793Z,93.14
2023-01-03T09:22:58.780Z,93.41
2023-01-03T09:23:58.796Z,93.62
2023-01-03T09:24:58.795Z,93.20
2023-01-03T09:25:58.808Z,92.99
2023-01-03T09:26:58.804Z,92.89
2023-01-03T09:27:58.730Z,93.30
2023-01-03T09:28:58.721Z,92.64
2023-01-03T09:29:58.767Z,93.16
2023-01-03T09:30:58.732Z,92.19
2023-01-03T09:31:58.781Z,91.77
2023-01-03T09:32:58.898Z,91.88
2023-01-03T09:33:58.663Z,91.26
2023-01-03T09:34:58.673Z,91.36
2023-01-03T09:35:58.679Z,91.94
2023-01-03T09:36:58.680Z,91.83
2023-01-03T09:37:58.632Z,91.32
2023-01-03T09:38:58.696Z,91.52
2023-01-03T09:39:58.605Z,91.01
2023-01-03T09:40:58.598Z,91.52
2023-01-03T09:41:58.607Z,91.52
2023-01-03T09:42:58.558Z,91.73
2023-01-03T09:43:58.591Z,91.22
2023-01-03T09:44:58.566Z,90.91
2023-01-03T09:45:58.536Z,90.76
2023-01-03T09:46:58.622Z,90.45
2023-01-03T09:47:58.531Z,90.66
2023-01-03T09:48:58.511Z,91.28
2023-01-03T09:50:27.736Z,91.07
2023-01-03T09:51:19.594Z,91.07
2023-01-03T09:51:59.489Z,90.35
2023-01-03T09:52:58.566Z,90.14
2023-01-03T09:53:58.483Z,89.73
2023-01-03T09:54:58.479Z,89.38
2023-01-03T09:55:58.433Z,89.48
2023-01-03T09:56:58.434Z,89.28
2023-01-03T09:57:58.422Z,89.28
2023-01-03T09:58:58.461Z,89.58
2023-01-03T10:00:00.379Z,89.28
2023-01-03T10:00:58.487Z,88.92
2023-01-03T10:01:58.670Z,89.38
2023-01-03T10:02:58.572Z,89.85
2023-01-03T10:03:58.371Z,90.26
2023-01-03T10:04:58.365Z,89.95
2023-01-03T10:05:58.339Z,90.16
2023-01-03T10:06:58.304Z,89.34
2023-01-03T10:07:58.276Z,89.44
2023-01-03T10:08:58.316Z,89.40
2023-01-03T10:09:58.304Z,89.19
2023-01-03T10:10:58.291Z,88.92
2023-01-03T10:11:58.256Z,89.09
2023-01-03T10:12:58.225Z,88.33
2023-01-03T10:13:58.256Z,88.64
2023-01-03T10:14:58.211Z,88.23
2023-01-03T10:15:58.263Z,88.33
2023-01-03T10:16:58.263Z,88.02
2023-01-03T10:17:58.181Z,87.60
2023-01-03T10:18:58.209Z,86.68
2023-01-03T10:19:58.157Z,87.09
2023-01-03T10:20:58.175Z,87.09
2023-01-03T10:21:58.170Z,87.87
2023-01-03T10:22:58.116Z,88.18
2023-01-03T10:23:58.191Z,87.98
2023-01-03T10:24:58.141Z,87.63
2023-01-03T10:25:58.190Z,87.57
2023-01-03T10:26:58.117Z,87.01
2023-01-03T10:27:58.118Z,87.26
2023-01-03T10:28:58.045Z,86.70
2023-01-03T10:29:58.050Z,87.12
2023-01-03T10:31:03.724Z,86.97
2023-01-03T10:31:59.135Z,87.28
2023-01-03T10:32:58.029Z,86.66
2023-01-03T10:33:57.998Z,86.46
2023-01-03T10:34:58.013Z,86.66
2023-01-03T10:35:58.007Z,86.56
2023-01-03T10:36:57.965Z,86.66
2023-01-03T10:37:58.011Z,86.77
2023-01-03T10:38:57.932Z,87.45
2023-01-03T10:39:57.988Z,87.13
2023-01-03T10:40:57.910Z,86.72
2023-01-03T10:41:57.910Z,85.80
2023-01-03T10:42:57.927Z,85.18
2023-01-03T10:43:57.900Z,85.08
2023-01-03T10:44:57.987Z,85.49
2023-01-03T10:45:57.913Z,85.39
2023-01-03T10:46:57.950Z,85.80
2023-01-03T10:47:57.854Z,85.55
2023-01-03T10:49:26.464Z,85.86
2023-01-03T10:49:58.871Z,85.80
2023-01-03T10:50:57.815Z,85.76
2023-01-03T10:51:57.793Z,85.76
2023-01-03T10:52:57.817Z,86.27
2023-01-03T10:53:57.788Z,86.27
2023-01-03T10:54:57.763Z,86.44
2023-01-03T10:55:57.755Z,85.41
2023-01-03T10:56:57.733Z,85.52
2023-01-03T10:57:57.759Z,85.68
2023-01-03T10:58:57.731Z,85.06
2023-01-03T10:59:57.705Z,85.38
2023-01-03T11:00:57.801Z,85.47
2023-01-03T11:01:57.903Z,85.68
2023-01-03T11:02:57.945Z,85.23
2023-01-03T11:03:57.799Z,85.44
2023-01-03T11:04:57.683Z,84.52
2023-01-03T11:05:57.684Z,84.41
2023-01-03T11:06:57.650Z,84.17
2023-01-03T11:07:57.610Z,84.37
2023-01-03T11:08:57.621Z,84.37
2023-01-03T11:09:57.616Z,83.96
2023-01-03T11:10:57.588Z,84.06
2023-01-03T11:11:57.584Z,83.55
2023-01-03T11:12:57.600Z,83.76
2023-01-03T11:13:57.586Z,84.17
2023-01-03T11:14:57.547Z,84.17
2023-01-03T11:15:57.543Z,84.03
2023-01-03T11:16:57.571Z,84.33
2023-01-03T11:17:57.518Z,84.23
2023-01-03T11:18:57.509Z,84.03
2023-01-03T11:19:57.562Z,84.03
2023-01-03T11:20:57.491Z,83.20
2023-01-03T11:21:57.454Z,82.69
2023-01-03T11:22:57.516Z,82.63
2023-01-03T11:23:57.457Z,82.93
2023-01-03T11:24:57.429Z,83.25
2023-01-03T11:25:57.417Z,82.69
2023-01-03T11:26:57.417Z,82.83
2023-01-03T11:27:57.438Z,82.90
2023-01-03T11:28:57.429Z,83.61
2023-01-03T11:29:57.390Z,83.10
2023-01-03T11:30:57.360Z,82.59
2023-01-03T11:31:57.452Z,82.08
2023-01-03T11:32:57.361Z,82.69
2023-01-03T11:33:57.375Z,82.39
2023-01-03T11:35:22.939Z,81.57
2023-01-03T11:35:58.376Z,82.35
2023-01-03T11:36:57.309Z,82.55
2023-01-03T11:37:57.276Z,82.24
2023-01-03T11:38:57.275Z,80.71
2023-01-03T11:39:57.315Z,80.23
2023-01-03T11:40:57.267Z,80.95
2023-01-03T11:41:57.237Z,81.01
2023-01-03T11:42:57.226Z,81.43
2023-01-03T11:43:57.226Z,81.43
2023-01-03T11:44:57.220Z,79.89
2023-01-03T11:45:57.257Z,79.89
2023-01-03T11:46:57.203Z,79.68
2023-01-03T11:47:57.206Z,80.19
2023-01-03T11:48:57.168Z,79.58
2023-01-03T11:49:57.177Z,79.96
2023-01-03T11:50:57.134Z,79.64
2023-01-03T11:51:57.165Z,79.48
2023-01-03T11:52:57.133Z,80.26
2023-01-03T11:53:57.092Z,80.36
2023-01-03T11:54:57.115Z,79.44
2023-01-03T11:55:57.146Z,77.91
2023-01-03T11:56:57.087Z,79.68
2023-01-03T11:57:57.084Z,79.13
2023-01-03T11:58:57.069Z,79.13
2023-01-03T11:59:57.077Z,79.44
2023-01-03T12:00:57.024Z,79.13
2023-01-03T12:01:57.172Z,79.75
2023-01-03T12:02:57.126Z,78.86
2023-01-03T12:03:57.074Z,78.63
2023-01-03T12:04:56.968Z,79.03
2023-01-03T12:05:56.979Z,79.85
2023-01-03T12:07:21.498Z,79.85
2023-01-03T12:07:57.949Z,79.24
2023-01-03T12:08:56.954Z,78.83
2023-01-03T12:09:56.937Z,79.44
2023-01-03T12:10:56.949Z,79.34
2023-01-03T12:11:56.903Z,79.10
2023-01-03T12:12:56.919Z,78.93
2023-01-03T12:13:56.939Z,79.54
2023-01-03T12:14:56.868Z,79.44
2023-01-03T12:15:56.953Z,79.85
2023-01-03T12:16:56.845Z,79.24
2023-01-03T12:17:56.871Z,79.50
2023-01-03T12:18:56.825Z,79.61
2023-01-03T12:19:56.841Z,80.33
2023-01-03T12:20:56.839Z,79.50
2023-01-03T12:21:56.818Z,79.30
2023-01-03T12:22:56.781Z,78.79
2023-01-03T12:23:56.799Z,78.49
2023-01-03T12:25:02.533Z,78.89
2023-01-03T12:25:57.792Z,79.41
2023-01-03T12:26:56.749Z,79.00
2023-01-03T12:27:56.722Z,78.59
2023-01-03T12:28:56.781Z,79.03
2023-01-03T12:29:56.727Z,79.41
2023-01-03T12:30:56.753Z,79.44
2023-01-03T12:31:56.828Z,79.41
2023-01-03T12:32:56.670Z,79.24
2023-01-03T12:33:56.674Z,79.44
2023-01-03T12:34:56.658Z,80.09
2023-01-03T12:35:56.704Z,80.13
2023-01-03T12:36:56.680Z,80.27
2023-01-03T12:37:56.656Z,80.88
2023-01-03T12:38:56.598Z,81.29
2023-01-03T12:39:56.685Z,81.85
2023-01-03T12:40:56.616Z,81.57
2023-01-03T12:41:56.573Z,81.85
2023-01-03T12:42:56.722Z,82.46
2023-01-03T12:43:56.573Z,82.81
2023-01-03T12:44:56.542Z,82.70
2023-01-03T12:45:56.602Z,82.60
2023-01-03T12:46:56.685Z,82.81
2023-01-03T12:47:56.558Z,82.77
2023-01-03T12:48:56.542Z,83.01
2023-01-03T12:49:56.528Z,83.32
2023-01-03T12:50:56.516Z,83.18
2023-01-03T12:51:56.466Z,84.10
2023-01-03T12:52:56.490Z,83.59
2023-01-03T12:53:56.443Z,84.27
2023-01-03T12:54:56.447Z,84.17
2023-01-03T12:55:56.425Z,83.59
2023-01-03T12:56:56.463Z,83.04
2023-01-03T12:57:56.383Z,83.34
2023-01-03T12:58:56.391Z,83.04
2023-01-03T13:01:06.174Z,82.83
2023-01-03T13:02:06.230Z,83.14
2023-01-03T13:03:06.398Z,82.93
2023-01-03T13:04:06.206Z,82.73
2023-01-03T13:05:06.069Z,82.56